Time;durP1;ratioP1;P1;durP2;ratioP2;P2;SDS_P1;SDS_P2;PMS_P1;PMS_P2;Temp;Humidity;BMP_temperature;BMP_pressure;BME280_temperature;BME280_humidity;BME280_pressure;Samples;Min_cycle;Max_cycle;Signal;HPM_P1;HPM_P2
2023/12/02 00:01:30;;;;;;;36.57;19.90;;;-2.90;9.10;;;;;;8364266;28;20221;-66
2023/12/02 00:05:31;;;;;;;35.57;20.67;;;-2.80;15.40;;;;;;8368890;28;20195;-66
2023/12/02 00:09:34;;;;;;;38.10;19.63;;;-2.80;1.00;;;;;;8368241;28;20194;-65
2023/12/02 00:13:34;;;;;;;39.97;19.53;;;-2.90;1.00;;;;;;8363322;28;20187;-65
2023/12/02 00:17:35;;;;;;;39.87;22.47;;;-2.90;1.00;;;;;;8363213;28;20527;-67
2023/12/02 00:21:36;;;;;;;39.57;20.47;;;-2.90;1.00;;;;;;8364299;28;20240;-67
2023/12/02 00:25:37;;;;;;;39.13;20.30;;;-2.90;1.00;;;;;;8365523;28;20183;-67
2023/12/02 00:29:38;;;;;;;37.07;19.53;;;-2.90;1.00;;;;;;8371907;28;20195;-66
2023/12/02 00:33:38;;;;;;;34.80;19.30;;;-2.90;1.00;;;;;;8377156;28;20187;-67
2023/12/02 00:37:39;;;;;;;37.17;20.70;;;-2.90;1.00;;;;;;8374557;28;20221;-66
2023/12/02 00:41:41;;;;;;;41.30;21.17;;;-2.80;1.00;;;;;;8371777;28;20243;-67
2023/12/02 00:45:41;;;;;;;43.13;22.10;;;-2.80;1.00;;;;;;8371374;28;20186;-66
2023/12/02 00:49:42;;;;;;;35.53;19.13;;;-2.80;8.30;;;;;;8371753;28;20194;-65
2023/12/02 00:53:44;;;;;;;32.63;18.23;;;-2.80;17.40;;;;;;8368489;28;20188;-65
2023/12/02 00:57:44;;;;;;;34.23;18.23;;;-2.70;29.00;;;;;;8373738;28;20233;-65
2023/12/02 01:01:45;;;;;;;34.43;18.27;;;-2.70;40.00;;;;;;8370540;28;20217;-66
2023/12/02 01:05:46;;;;;;;31.30;16.90;;;-2.70;52.60;;;;;;8369182;28;20217;-64
2023/12/02 01:09:47;;;;;;;32.17;15.20;;;-2.60;70.30;;;;;;8372867;28;20510;-65
2023/12/02 01:13:47;;;;;;;29.97;16.73;;;-2.60;83.70;;;;;;8374183;28;20187;-65
2023/12/02 01:17:48;;;;;;;32.60;18.27;;;-2.60;90.00;;;;;;8370740;28;20195;-65
2023/12/02 01:21:49;;;;;;;29.47;17.07;;;-2.70;95.20;;;;;;8371176;28;20674;-65
2023/12/02 01:25:50;;;;;;;28.37;16.40;;;-2.70;99.90;;;;;;8367108;28;20195;-65
2023/12/02 01:29:52;;;;;;;29.03;17.80;;;-2.60;99.90;;;;;;8373603;28;20196;-65
2023/12/02 01:33:53;;;;;;;31.03;16.93;;;-2.60;99.90;;;;;;8372230;28;20187;-65
2023/12/02 01:37:53;;;;;;;27.93;16.63;;;-2.60;99.90;;;;;;8365307;28;20195;-65
2023/12/02 01:41:55;;;;;;;32.03;17.37;;;-2.50;99.90;;;;;;8371231;28;20221;-66
2023/12/02 01:45:56;;;;;;;31.83;17.53;;;-2.50;99.90;;;;;;8371325;28;20373;-65
2023/12/02 01:50:00;;;;;;;29.03;18.27;;;-2.50;99.90;;;;;;8369481;28;20220;-65
2023/12/02 01:54:03;;;;;;;28.53;17.03;;;-2.50;99.90;;;;;;8371248;28;20219;-65
2023/12/02 01:58:04;;;;;;;30.83;16.10;;;-2.50;99.90;;;;;;8368696;28;20273;-65
2023/12/02 02:02:06;;;;;;;30.80;17.63;;;-2.50;99.90;;;;;;8370918;28;20215;-65
2023/12/02 02:06:10;;;;;;;32.83;18.40;;;-2.50;99.90;;;;;;8368851;28;20191;-65
2023/12/02 02:10:12;;;;;;;35.87;20.37;;;-2.50;99.90;;;;;;8372352;28;20182;-65
2023/12/02 02:14:13;;;;;;;34.47;20.80;;;-2.50;99.90;;;;;;8370053;28;20244;-65
2023/12/02 02:18:13;;;;;;;34.33;21.33;;;-2.50;99.90;;;;;;8367986;28;20602;-65
2023/12/02 02:22:14;;;;;;;39.90;20.77;;;-2.50;99.90;;;;;;8367447;28;20213;-65
2023/12/02 02:26:15;;;;;;;43.20;22.43;;;-2.50;99.90;;;;;;8372524;28;20168;-64
2023/12/02 02:30:16;;;;;;;40.03;22.17;;;-2.50;99.90;;;;;;8371867;28;20187;-67
2023/12/02 02:34:18;;;;;;;38.63;20.73;;;-2.40;99.90;;;;;;8373955;28;20274;-65
2023/12/02 02:38:19;;;;;;;35.70;21.00;;;-2.40;99.90;;;;;;8371175;28;20353;-67
2023/12/02 02:42:20;;;;;;;32.83;19.37;;;-2.40;99.90;;;;;;8368332;28;20302;-66
2023/12/02 02:46:21;;;;;;;35.40;21.03;;;-2.40;99.90;;;;;;8371375;28;20397;-66
2023/12/02 02:50:22;;;;;;;36.87;19.47;;;-2.40;99.90;;;;;;8373279;28;20251;-67
2023/12/02 02:54:23;;;;;;;35.17;19.17;;;-2.50;98.00;;;;;;8370258;28;20188;-67
2023/12/02 02:58:29;;;;;;;34.97;19.37;;;-2.50;99.90;;;;;;8361995;28;20203;-67
2023/12/02 03:02:30;;;;;;;30.10;16.60;;;-2.50;99.90;;;;;;8369608;28;20204;-67
2023/12/02 03:06:30;;;;;;;30.50;17.17;;;-2.50;99.90;;;;;;8371402;28;20233;-66
2023/12/02 03:10:33;;;;;;;31.17;19.20;;;-2.60;99.90;;;;;;8365821;28;20192;-67
2023/12/02 03:14:34;;;;;;;31.37;17.47;;;-2.60;99.90;;;;;;8367607;28;20215;-67
2023/12/02 03:18:35;;;;;;;36.27;20.47;;;-2.60;99.90;;;;;;8369683;28;20743;-67
2023/12/02 03:22:35;;;;;;;31.40;17.83;;;-2.60;99.90;;;;;;8369173;28;20179;-67
2023/12/02 03:26:37;;;;;;;36.53;19.63;;;-2.70;99.90;;;;;;8362385;28;20178;-66
2023/12/02 03:30:38;;;;;;;55.10;27.23;;;-2.60;99.90;;;;;;8368527;28;20167;-66
2023/12/02 03:34:38;;;;;;;56.97;29.17;;;-2.70;99.90;;;;;;8370723;28;20186;-65
2023/12/02 03:38:40;;;;;;;60.53;30.50;;;-2.70;99.90;;;;;;8370314;28;20207;-65
2023/12/02 03:42:42;;;;;;;58.23;31.10;;;-2.70;99.90;;;;;;8371595;28;20310;-66
2023/12/02 03:46:44;;;;;;;64.77;32.33;;;-2.70;99.90;;;;;;8367413;28;20213;-65
2023/12/02 03:50:45;;;;;;;60.83;32.67;;;-2.70;99.90;;;;;;8370146;28;20282;-66
2023/12/02 03:54:46;;;;;;;71.47;35.93;;;-2.80;99.90;;;;;;8370427;28;20182;-65
2023/12/02 03:58:47;;;;;;;69.70;33.50;;;-2.80;99.90;;;;;;8365921;28;20213;-65
2023/12/02 04:02:48;;;;;;;68.27;35.57;;;-2.80;99.90;;;;;;8375761;28;20228;-66
2023/12/02 04:06:49;;;;;;;51.00;31.10;;;-2.80;99.90;;;;;;8375460;28;20540;-65
2023/12/02 04:10:50;;;;;;;61.63;31.07;;;-2.80;99.90;;;;;;8372339;28;20494;-66
2023/12/02 04:14:50;;;;;;;57.53;32.37;;;-2.90;99.90;;;;;;8374380;28;20219;-66
2023/12/02 04:18:51;;;;;;;62.27;33.77;;;-2.90;99.90;;;;;;8372125;28;20201;-65
2023/12/02 04:22:53;;;;;;;71.43;37.17;;;-2.90;99.90;;;;;;8373220;28;20220;-65
2023/12/02 04:26:54;;;;;;;63.17;37.13;;;-2.90;99.90;;;;;;8377142;28;20185;-64
2023/12/02 04:30:54;;;;;;;59.40;33.30;;;-2.90;99.90;;;;;;8372092;28;20186;-64
2023/12/02 04:34:55;;;;;;;60.03;32.97;;;-2.80;99.90;;;;;;8375872;28;20182;-62
2023/12/02 04:38:56;;;;;;;56.83;33.33;;;-2.80;99.90;;;;;;8373318;28;20205;-61
2023/12/02 04:42:57;;;;;;;61.40;33.87;;;-2.80;99.90;;;;;;8377321;28;20189;-62
2023/12/02 04:46:57;;;;;;;60.77;34.60;;;-2.90;99.90;;;;;;8374969;28;20229;-62
2023/12/02 04:50:58;;;;;;;56.13;31.93;;;-2.90;99.90;;;;;;8368962;28;20299;-63
2023/12/02 04:54:59;;;;;;;57.33;31.37;;;-2.90;99.90;;;;;;8378599;28;20188;-62
2023/12/02 04:59:00;;;;;;;59.00;33.00;;;-3.00;99.90;;;;;;8377548;28;20197;-62
2023/12/02 05:03:01;;;;;;;55.00;32.87;;;-3.00;99.90;;;;;;8377169;28;20209;-62
2023/12/02 05:07:01;;;;;;;71.70;41.37;;;-3.00;99.90;;;;;;8372615;28;20232;-62
2023/12/02 05:11:03;;;;;;;65.80;35.07;;;-3.00;99.90;;;;;;8367483;28;20170;-62
2023/12/02 05:15:05;;;;;;;73.27;39.60;;;-3.00;99.90;;;;;;8364871;28;20228;-62
2023/12/02 05:19:06;;;;;;;75.80;39.00;;;-3.00;99.90;;;;;;8374597;28;20252;-63
2023/12/02 05:23:07;;;;;;;73.13;38.77;;;-3.00;99.90;;;;;;8374956;28;20182;-62
2023/12/02 05:27:08;;;;;;;62.13;32.50;;;-3.00;99.90;;;;;;8375306;28;20189;-63
2023/12/02 05:31:11;;;;;;;62.13;30.47;;;-3.00;99.90;;;;;;8370446;28;20572;-62
2023/12/02 05:35:12;;;;;;;57.50;33.10;;;-3.00;99.90;;;;;;8370358;28;20229;-62
2023/12/02 05:39:14;;;;;;;56.83;33.03;;;-3.00;99.90;;;;;;8373865;28;20364;-65
2023/12/02 05:43:14;;;;;;;54.90;31.53;;;-3.00;99.90;;;;;;8375194;28;20190;-66
2023/12/02 05:47:15;;;;;;;59.00;32.43;;;-3.00;99.90;;;;;;8375530;28;20213;-66
2023/12/02 05:51:16;;;;;;;53.17;29.23;;;-3.10;99.90;;;;;;8375960;28;20198;-66
2023/12/02 05:55:17;;;;;;;56.17;30.07;;;-3.10;99.90;;;;;;8372989;28;20209;-66
2023/12/02 05:59:17;;;;;;;52.67;28.63;;;-3.10;99.90;;;;;;8368861;28;20301;-66
2023/12/02 06:03:18;;;;;;;52.80;32.20;;;-3.10;99.90;;;;;;8373385;28;20216;-66
2023/12/02 06:07:19;;;;;;;61.70;33.70;;;-3.10;99.90;;;;;;8373349;28;20501;-65
2023/12/02 06:11:20;;;;;;;63.37;34.87;;;-3.10;99.90;;;;;;8373603;28;20182;-66
2023/12/02 06:15:21;;;;;;;60.83;33.10;;;-3.00;99.90;;;;;;8370422;28;20225;-66
2023/12/02 06:19:22;;;;;;;60.10;33.13;;;-3.00;99.90;;;;;;8373099;28;20200;-65
2023/12/02 06:23:23;;;;;;;73.97;37.70;;;-3.00;99.90;;;;;;8369650;28;20249;-66
2023/12/02 06:27:24;;;;;;;66.30;33.47;;;-3.10;99.90;;;;;;8367738;28;20186;-66
2023/12/02 06:31:27;;;;;;;59.70;32.43;;;-3.10;99.90;;;;;;8374737;28;20235;-67
2023/12/02 06:35:28;;;;;;;57.60;32.93;;;-3.20;99.90;;;;;;8369403;28;20185;-66
2023/12/02 06:39:29;;;;;;;58.10;32.77;;;-3.20;99.90;;;;;;8371805;28;20200;-66
2023/12/02 06:43:29;;;;;;;58.17;32.07;;;-3.20;99.90;;;;;;8367812;28;20182;-66
2023/12/02 06:47:31;;;;;;;62.83;32.27;;;-3.30;99.90;;;;;;8368973;28;20217;-62
2023/12/02 06:51:32;;;;;;;50.73;30.40;;;-3.30;99.90;;;;;;8368014;28;20181;-63
2023/12/02 06:55:34;;;;;;;55.20;30.67;;;-3.30;99.90;;;;;;8371684;28;20189;-67
2023/12/02 06:59:36;;;;;;;59.87;30.67;;;-3.30;99.90;;;;;;8389705;28;20236;-67
2023/12/02 07:03:42;;;;;;;52.10;30.20;;;-3.20;99.90;;;;;;8374225;28;20227;-67
2023/12/02 07:07:42;;;;;;;49.77;29.70;;;-3.20;99.90;;;;;;8368585;28;20178;-68
2023/12/02 07:11:43;;;;;;;55.10;32.03;;;-3.10;99.90;;;;;;8373645;28;20198;-68
2023/12/02 07:15:44;;;;;;;54.47;29.53;;;-3.00;99.90;;;;;;8371021;28;20200;-68
2023/12/02 07:19:45;;;;;;;56.20;30.30;;;-3.10;99.90;;;;;;8378362;28;20198;-67
2023/12/02 07:23:53;;;;;;;53.47;29.83;;;-3.10;99.90;;;;;;8373829;28;20182;-68
2023/12/02 07:27:55;;;;;;;54.73;29.67;;;-3.00;99.90;;;;;;8367164;28;20234;-67
2023/12/02 07:31:59;;;;;;;53.77;31.07;;;-3.10;99.90;;;;;;8375088;28;20189;-68
2023/12/02 07:35:59;;;;;;;52.03;30.03;;;-3.10;99.90;;;;;;8375518;28;20183;-67
2023/12/02 07:40:00;;;;;;;54.00;29.60;;;-3.00;99.90;;;;;;8374716;28;20242;-69
2023/12/02 07:44:03;;;;;;;54.13;28.97;;;-3.10;99.90;;;;;;8372611;28;20193;-67
2023/12/02 07:48:05;;;;;;;53.60;27.97;;;-3.00;99.90;;;;;;8376127;28;20243;-67
2023/12/02 07:52:08;;;;;;;52.03;28.53;;;-3.10;99.90;;;;;;8372579;28;20189;-67
2023/12/02 07:56:10;;;;;;;52.47;29.37;;;-3.10;99.90;;;;;;8373706;28;20181;-67
2023/12/02 08:00:11;;;;;;;53.17;28.63;;;-3.10;99.90;;;;;;8369096;28;20320;-67
2023/12/02 08:04:12;;;;;;;53.00;28.50;;;-3.10;99.90;;;;;;8369002;28;20189;-67
2023/12/02 08:08:12;;;;;;;57.27;31.07;;;-3.10;99.90;;;;;;8368646;28;20190;-67
2023/12/02 08:12:13;;;;;;;55.87;30.60;;;-3.10;99.90;;;;;;8374606;28;20185;-68
2023/12/02 08:16:15;;;;;;;53.37;30.33;;;-3.10;99.90;;;;;;8372316;28;20193;-67
2023/12/02 08:20:16;;;;;;;56.50;31.47;;;-3.10;99.90;;;;;;8378383;28;20200;-67
2023/12/02 08:24:21;;;;;;;60.60;33.70;;;-3.10;99.90;;;;;;8371974;28;20173;-68
2023/12/02 08:28:22;;;;;;;51.73;29.77;;;-3.00;99.90;;;;;;8374398;28;20189;-68
2023/12/02 08:32:23;;;;;;;56.50;31.30;;;-2.90;99.90;;;;;;8370794;28;20186;-69
2023/12/02 08:36:27;;;;;;;60.90;31.80;;;-2.90;99.90;;;;;;8372304;28;20189;-67
2023/12/02 08:40:28;;;;;;;56.17;31.17;;;-2.90;99.90;;;;;;8372450;28;20253;-68
2023/12/02 08:44:30;;;;;;;56.27;30.90;;;-2.90;99.90;;;;;;8375401;28;20185;-68
2023/12/02 08:48:31;;;;;;;54.23;29.60;;;-2.80;99.90;;;;;;8372386;28;20194;-68
2023/12/02 08:52:32;;;;;;;62.60;32.80;;;-2.80;99.90;;;;;;8382989;28;20190;-68
2023/12/02 08:56:34;;;;;;;54.27;31.70;;;-2.70;99.90;;;;;;8379409;28;20266;-68
2023/12/02 09:00:35;;;;;;;54.73;31.03;;;-2.60;99.90;;;;;;8377885;28;20556;-68
2023/12/02 09:04:36;;;;;;;55.90;29.83;;;-2.60;99.90;;;;;;8376867;28;20190;-68
2023/12/02 09:08:37;;;;;;;53.87;29.87;;;-2.50;99.90;;;;;;8376240;28;20211;-68
2023/12/02 09:12:37;;;;;;;53.67;30.43;;;-2.50;99.90;;;;;;8375020;28;20173;-68
2023/12/02 09:16:46;;;;;;;49.40;28.60;;;-2.40;99.90;;;;;;8376217;28;20184;-65
2023/12/02 09:20:50;;;;;;;46.93;26.20;;;-2.30;99.90;;;;;;8379096;28;20191;-67
2023/12/02 09:24:51;;;;;;;40.37;23.57;;;-2.40;99.90;;;;;;8369700;28;20193;-66
2023/12/02 09:28:54;;;;;;;39.50;24.20;;;-2.30;99.90;;;;;;8369255;28;20254;-65
2023/12/02 09:32:56;;;;;;;45.73;25.33;;;-2.20;99.90;;;;;;8370797;28;20187;-65
2023/12/02 09:36:57;;;;;;;43.13;23.37;;;-2.10;99.90;;;;;;8378519;28;20191;-66
2023/12/02 09:41:10;;;;;;;46.90;25.53;;;-1.90;99.90;;;;;;8379433;28;20220;-67
2023/12/02 09:45:11;;;;;;;54.37;28.80;;;-1.70;99.90;;;;;;8373442;28;20246;-66
2023/12/02 09:49:37;;;;;;;47.20;26.93;;;-1.70;99.90;;;;;;8368335;28;20199;-66
2023/12/02 09:53:51;;;;;;;36.50;20.60;;;-1.60;99.90;;;;;;8364883;28;20741;-66
2023/12/02 09:58:01;;;;;;;29.60;17.10;;;-1.50;99.90;;;;;;8370032;28;20191;-66
2023/12/02 10:02:12;;;;;;;27.50;16.23;;;-1.60;99.90;;;;;;8371476;28;20278;-67
2023/12/02 10:06:29;;;;;;;28.10;17.23;;;-1.50;99.90;;;;;;8373220;28;20248;-66
2023/12/02 10:10:40;;;;;;;32.57;16.27;;;-1.50;99.90;;;;;;8372989;28;20183;-66
2023/12/02 10:14:44;;;;;;;33.47;19.37;;;-1.30;99.90;;;;;;8362945;28;20440;-65
2023/12/02 10:18:56;;;;;;;30.13;16.67;;;-1.40;99.90;;;;;;8366791;28;20215;-67
2023/12/02 10:23:19;;;;;;;33.03;18.67;;;-1.40;99.90;;;;;;8371202;28;20184;-66
2023/12/02 10:27:19;;;;;;;35.43;20.60;;;-1.20;99.90;;;;;;8370689;28;20193;-65
2023/12/02 10:31:48;;;;;;;36.37;21.43;;;-1.00;99.90;;;;;;8370433;28;20193;-64
2023/12/02 10:35:52;;;;;;;32.27;18.03;;;-0.70;99.90;;;;;;8369942;28;20211;-65
2023/12/02 10:39:55;;;;;;;30.03;17.23;;;-0.90;1.00;;;;;;8366567;28;20335;-64
2023/12/02 10:44:03;;;;;;;25.77;15.20;;;-1.00;1.00;;;;;;8371648;28;20193;-65
2023/12/02 10:48:04;;;;;;;29.10;14.83;;;-1.10;43.80;;;;;;8370501;28;20187;-63
2023/12/02 10:52:07;;;;;;;25.03;14.20;;;-1.10;20.90;;;;;;8366597;28;20507;-64
2023/12/02 10:56:16;;;;;;;25.03;12.57;;;-1.10;1.00;;;;;;8372942;28;20181;-65
2023/12/02 11:00:19;;;;;;;28.10;15.47;;;-1.00;1.00;;;;;;8364496;28;20279;-65
2023/12/02 11:04:34;;;;;;;28.17;15.00;;;-1.10;23.60;;;;;;8368159;28;20192;-66
2023/12/02 11:08:50;;;;;;;26.13;15.33;;;-1.30;93.90;;;;;;8366922;28;20187;-64
2023/12/02 11:12:54;;;;;;;26.53;14.40;;;-1.30;64.30;;;;;;8380570;28;20204;-65
2023/12/02 11:17:24;;;;;;;25.67;14.70;;;-1.30;87.70;;;;;;8367592;28;20193;-63
2023/12/02 11:21:41;;;;;;;21.00;13.23;;;-1.20;99.90;;;;;;8348084;28;20211;-65
2023/12/02 11:26:10;;;;;;;24.97;13.03;;;-1.10;18.80;;;;;;8364238;28;20184;-65
2023/12/02 11:30:35;;;;;;;26.37;14.67;;;-1.40;1.00;;;;;;8368780;28;20211;-65
2023/12/02 11:34:59;;;;;;;23.83;13.33;;;-1.50;52.50;;;;;;8368529;28;20198;-63
2023/12/02 11:39:00;;;;;;;23.77;12.80;;;-1.60;99.30;;;;;;8357162;28;20243;-65
2023/12/02 11:43:14;;;;;;;27.33;13.87;;;-1.70;93.10;;;;;;8366280;28;20206;-65
2023/12/02 11:47:45;;;;;;;21.33;12.43;;;-1.80;99.90;;;;;;8367058;28;20191;-67
2023/12/02 11:51:52;;;;;;;23.27;13.13;;;-1.80;99.90;;;;;;8366827;28;20177;-65
2023/12/02 11:56:07;;;;;;;28.33;13.93;;;-1.60;99.90;;;;;;8365002;28;20258;-67
2023/12/02 12:00:18;;;;;;;20.87;12.20;;;-1.50;99.90;;;;;;8365780;28;20599;-66
2023/12/02 12:04:44;;;;;;;21.63;12.10;;;-1.50;57.90;;;;;;8367142;28;20176;-66
2023/12/02 12:09:02;;;;;;;20.33;11.53;;;-1.40;9.70;;;;;;8366449;28;20184;-66
2023/12/02 12:13:08;;;;;;;20.73;12.83;;;-1.40;9.90;;;;;;8375108;28;20216;-67
2023/12/02 12:17:09;;;;;;;19.60;11.97;;;-1.50;54.50;;;;;;8369494;28;20216;-67
2023/12/02 12:21:10;;;;;;;22.07;12.93;;;-1.60;99.90;;;;;;8369064;28;20201;-67
2023/12/02 12:25:12;;;;;;;24.53;13.87;;;-1.60;99.90;;;;;;8371931;28;20182;-67
2023/12/02 12:29:13;;;;;;;24.23;13.77;;;-1.70;99.90;;;;;;8374448;28;20238;-67
2023/12/02 12:33:15;;;;;;;26.00;13.37;;;-1.80;99.90;;;;;;8370196;28;20206;-68
2023/12/02 12:37:16;;;;;;;28.00;14.17;;;-1.90;99.90;;;;;;8373914;28;20465;-67
2023/12/02 12:41:21;;;;;;;30.10;15.63;;;-2.00;99.90;;;;;;8375602;28;20262;-67
2023/12/02 12:45:23;;;;;;;26.13;14.47;;;-1.90;99.90;;;;;;8372950;28;20182;-66
2023/12/02 12:49:26;;;;;;;30.87;14.87;;;-1.90;99.90;;;;;;8373517;28;20186;-66
2023/12/02 12:53:29;;;;;;;26.17;15.10;;;-1.90;99.90;;;;;;8374969;28;20205;-67
2023/12/02 12:57:40;;;;;;;22.13;13.87;;;-1.90;99.90;;;;;;8371822;28;20191;-67
2023/12/02 13:02:14;;;;;;;22.43;13.53;;;-1.80;99.90;;;;;;8374137;28;20241;-67
2023/12/02 13:06:30;;;;;;;29.60;16.23;;;-1.90;99.90;;;;;;8369949;28;20287;-66
2023/12/02 13:10:34;;;;;;;22.77;13.80;;;-1.80;99.90;;;;;;8374777;28;20183;-66
2023/12/02 13:14:49;;;;;;;20.13;12.40;;;-1.70;99.90;;;;;;8373257;28;20454;-67
2023/12/02 13:18:54;;;;;;;23.03;13.53;;;-1.80;99.90;;;;;;8373576;28;20230;-66
2023/12/02 13:23:01;;;;;;;25.93;13.73;;;-1.80;99.90;;;;;;8372004;28;20178;-66
2023/12/02 13:27:02;;;;;;;27.17;15.83;;;-1.90;99.90;;;;;;8372574;28;20252;-66
2023/12/02 13:31:07;;;;;;;22.77;14.10;;;-2.00;99.90;;;;;;8370188;28;20181;-65
2023/12/02 13:35:14;;;;;;;25.90;12.97;;;-2.00;99.90;;;;;;8375059;28;20186;-65
2023/12/02 13:39:35;;;;;;;25.83;14.57;;;-2.10;99.90;;;;;;8372270;28;20201;-66
2023/12/02 13:43:53;;;;;;;25.13;13.17;;;-2.10;99.90;;;;;;8375026;28;20194;-67
2023/12/02 13:48:21;;;;;;;27.30;13.27;;;-2.10;99.90;;;;;;8376073;28;20196;-68
2023/12/02 13:52:51;;;;;;;22.13;12.73;;;-2.10;99.90;;;;;;8371028;28;20206;-65
2023/12/02 13:57:12;;;;;;;25.77;12.53;;;-2.20;99.90;;;;;;8373486;28;20376;-66
2023/12/02 14:01:30;;;;;;;22.30;10.90;;;-2.20;99.90;;;;;;8369491;28;20209;-65
2023/12/02 14:05:44;;;;;;;25.50;11.60;;;-2.30;99.90;;;;;;8368151;28;20205;-66
2023/12/02 14:09:45;;;;;;;16.60;10.43;;;-2.30;99.90;;;;;;8381568;28;20182;-66
2023/12/02 14:14:09;;;;;;;21.37;11.83;;;-2.30;99.90;;;;;;8374107;28;20190;-66
2023/12/02 14:18:44;;;;;;;24.90;12.00;;;-2.30;99.90;;;;;;8359424;28;20200;-66
2023/12/02 14:23:15;;;;;;;20.33;10.43;;;-2.40;99.90;;;;;;8378791;28;20188;-66
2023/12/02 14:28:03;;;;;;;16.70;8.50;;;-2.40;99.90;;;;;;8374743;28;20189;-66
2023/12/02 14:32:19;;;;;;;19.53;8.63;;;-2.40;99.90;;;;;;8375584;28;20187;-66
2023/12/02 14:36:26;;;;;;;13.63;7.67;;;-2.50;99.90;;;;;;8381420;28;20213;-66
2023/12/02 14:40:41;;;;;;;18.53;8.50;;;-2.50;99.90;;;;;;8368192;28;20231;-66
2023/12/02 14:44:42;;;;;;;18.10;8.30;;;-2.50;99.90;;;;;;8376137;28;20173;-66
2023/12/02 14:48:45;;;;;;;19.90;9.37;;;-2.60;99.90;;;;;;8376936;28;20209;-66
2023/12/02 14:52:49;;;;;;;15.33;8.87;;;-2.60;99.90;;;;;;8374723;28;20332;-66
2023/12/02 14:56:51;;;;;;;18.20;10.03;;;-2.70;99.90;;;;;;8380511;28;20444;-66
2023/12/02 15:01:01;;;;;;;26.93;12.50;;;-2.70;99.90;;;;;;8375132;28;20221;-66
2023/12/02 15:05:09;;;;;;;17.47;8.93;;;-2.80;99.90;;;;;;8378563;28;20182;-66
2023/12/02 15:09:27;;;;;;;15.57;8.53;;;-2.80;99.90;;;;;;8371772;28;20290;-66
2023/12/02 15:13:28;;;;;;;14.00;8.20;;;-2.90;99.90;;;;;;8375712;28;20189;-65
2023/12/02 15:17:29;;;;;;;18.03;9.50;;;-2.90;99.90;;;;;;8372164;28;20247;-63
2023/12/02 15:21:30;;;;;;;14.57;8.70;;;-2.90;99.90;;;;;;8369531;28;20202;-61
2023/12/02 15:25:32;;;;;;;13.23;7.73;;;-3.00;99.90;;;;;;8365530;28;20199;-64
2023/12/02 15:29:33;;;;;;;17.33;8.23;;;-3.00;99.90;;;;;;8370404;28;20197;-65
2023/12/02 15:33:50;;;;;;;16.23;8.63;;;-3.10;99.90;;;;;;8371388;28;20385;-66
2023/12/02 15:37:52;;;;;;;14.13;8.37;;;-3.10;99.90;;;;;;8384100;28;20199;-66
2023/12/02 15:41:54;;;;;;;14.20;8.17;;;-3.20;99.90;;;;;;8367660;28;20289;-66
2023/12/02 15:45:55;;;;;;;15.07;8.73;;;-3.20;99.90;;;;;;8368486;28;20465;-67
2023/12/02 15:49:56;;;;;;;13.50;7.93;;;-3.20;99.90;;;;;;8368106;28;20631;-66
2023/12/02 15:53:59;;;;;;;13.97;8.40;;;-3.20;99.90;;;;;;8368557;28;20184;-66
2023/12/02 15:58:01;;;;;;;13.87;8.07;;;-3.30;99.90;;;;;;8370607;28;20191;-66
2023/12/02 16:02:04;;;;;;;11.67;7.70;;;-3.30;99.90;;;;;;8373534;28;20205;-66
2023/12/02 16:06:07;;;;;;;16.27;8.87;;;-3.30;99.90;;;;;;8371923;28;20412;-66
2023/12/02 16:10:14;;;;;;;17.73;9.30;;;-3.40;99.90;;;;;;8373947;28;20177;-66
2023/12/02 16:14:16;;;;;;;15.60;8.60;;;-3.40;99.90;;;;;;8376958;28;20188;-66
2023/12/02 16:18:17;;;;;;;15.63;7.67;;;-3.40;99.90;;;;;;8376584;28;20264;-67
2023/12/02 16:22:18;;;;;;;17.00;9.63;;;-3.40;99.90;;;;;;8366473;28;20567;-68
2023/12/02 16:26:20;;;;;;;21.53;10.43;;;-3.40;99.90;;;;;;8376673;28;20184;-66
2023/12/02 16:30:21;;;;;;;17.70;9.80;;;-3.40;99.90;;;;;;8375353;28;20184;-66
2023/12/02 16:34:24;;;;;;;21.60;11.33;;;-3.50;99.90;;;;;;8373477;28;20636;-66
2023/12/02 16:38:25;;;;;;;21.27;10.80;;;-3.50;99.90;;;;;;8371574;28;20189;-66
2023/12/02 16:42:26;;;;;;;24.93;12.10;;;-3.50;99.90;;;;;;8371625;28;20240;-66
2023/12/02 16:46:27;;;;;;;22.53;11.67;;;-3.50;99.90;;;;;;8372902;28;20183;-67
2023/12/02 16:50:30;;;;;;;18.87;10.37;;;-3.50;99.90;;;;;;8370489;28;20395;-67
2023/12/02 16:54:32;;;;;;;22.00;11.33;;;-3.50;99.90;;;;;;8378064;28;20192;-66
2023/12/02 16:58:37;;;;;;;19.30;10.70;;;-3.50;99.90;;;;;;8372706;28;20226;-65
2023/12/02 17:02:40;;;;;;;19.33;11.13;;;-3.50;99.90;;;;;;8371773;28;20296;-66
2023/12/02 17:06:41;;;;;;;17.83;10.23;;;-3.50;99.90;;;;;;8372255;28;20219;-66
2023/12/02 17:10:43;;;;;;;20.40;10.20;;;-3.50;99.90;;;;;;8371775;28;20190;-66
2023/12/02 17:14:44;;;;;;;16.30;9.43;;;-3.50;99.90;;;;;;8374378;28;20216;-67
2023/12/02 17:18:56;;;;;;;21.07;9.97;;;-3.50;99.90;;;;;;8377422;28;20185;-66
2023/12/02 17:22:58;;;;;;;17.80;8.17;;;-3.50;99.90;;;;;;8369929;28;20196;-65
2023/12/02 17:27:02;;;;;;;16.27;8.40;;;-3.50;99.90;;;;;;8373667;28;20199;-66
2023/12/02 17:31:03;;;;;;;19.07;9.67;;;-3.50;99.90;;;;;;8370470;28;20196;-66
2023/12/02 17:35:05;;;;;;;17.57;8.93;;;-3.50;99.90;;;;;;8375625;28;20189;-68
2023/12/02 17:39:05;;;;;;;21.80;9.27;;;-3.50;99.90;;;;;;8377309;28;20261;-68
2023/12/02 17:43:06;;;;;;;20.60;9.73;;;-3.50;99.90;;;;;;8369915;28;20225;-67
2023/12/02 17:47:07;;;;;;;21.60;10.53;;;-3.50;99.90;;;;;;8372025;28;20196;-63
2023/12/02 17:51:09;;;;;;;23.47;10.30;;;-3.50;99.90;;;;;;8376372;28;20196;-64
2023/12/02 17:55:11;;;;;;;19.57;9.70;;;-3.50;99.90;;;;;;8370944;28;20191;-61
2023/12/02 17:59:14;;;;;;;23.80;9.50;;;-3.50;99.90;;;;;;8375429;28;20200;-63
2023/12/02 18:03:15;;;;;;;22.33;10.57;;;-3.50;99.90;;;;;;8372744;28;20173;-63
2023/12/02 18:07:16;;;;;;;21.40;10.37;;;-3.60;99.90;;;;;;8375181;28;20185;-62
2023/12/02 18:11:18;;;;;;;20.87;10.77;;;-3.60;99.90;;;;;;8372709;28;20181;-63
2023/12/02 18:15:19;;;;;;;19.43;9.57;;;-3.60;99.90;;;;;;8374458;28;20193;-64
2023/12/02 18:19:20;;;;;;;22.73;11.60;;;-3.60;99.90;;;;;;8370577;28;20204;-62
2023/12/02 18:23:22;;;;;;;19.83;10.90;;;-3.60;99.90;;;;;;8378672;28;20181;-62
2023/12/02 18:27:23;;;;;;;21.73;10.20;;;-3.60;99.90;;;;;;8375239;28;20188;-64
2023/12/02 18:31:25;;;;;;;20.30;10.13;;;-3.60;99.90;;;;;;8375796;28;20267;-63
2023/12/02 18:35:26;;;;;;;19.80;10.07;;;-3.60;99.90;;;;;;8371947;28;20192;-63
2023/12/02 18:39:27;;;;;;;19.67;9.40;;;-3.60;99.90;;;;;;8369990;28;20204;-62
2023/12/02 18:43:29;;;;;;;15.07;8.97;;;-3.60;99.90;;;;;;8374969;28;20251;-63
2023/12/02 18:47:30;;;;;;;16.07;8.20;;;-3.70;99.90;;;;;;8375217;28;20180;-63
2023/12/02 18:51:31;;;;;;;14.67;7.70;;;-3.70;99.90;;;;;;8372373;28;20288;-62
2023/12/02 18:55:32;;;;;;;11.90;7.90;;;-3.80;99.90;;;;;;8370746;28;20185;-61
2023/12/02 18:59:35;;;;;;;13.27;7.73;;;-3.80;99.90;;;;;;8374934;28;20221;-62
2023/12/02 19:03:37;;;;;;;10.43;6.83;;;-3.80;99.90;;;;;;8374539;28;20299;-62
2023/12/02 19:07:39;;;;;;;13.13;7.60;;;-3.80;99.90;;;;;;8370990;28;20224;-66
2023/12/02 19:11:40;;;;;;;15.03;8.63;;;-3.90;99.90;;;;;;8372137;28;20190;-68
2023/12/02 19:15:41;;;;;;;15.03;8.40;;;-3.90;99.90;;;;;;8372051;28;20185;-67
2023/12/02 19:19:42;;;;;;;16.30;8.10;;;-3.90;99.90;;;;;;8367430;28;20217;-67
2023/12/02 19:23:43;;;;;;;11.43;6.50;;;-3.90;99.90;;;;;;8374146;28;20185;-65
2023/12/02 19:27:44;;;;;;;9.67;6.50;;;-3.90;99.90;;;;;;8376164;28;20269;-67
2023/12/02 19:31:48;;;;;;;10.63;6.43;;;-3.90;99.90;;;;;;8368026;28;20181;-68
2023/12/02 19:35:50;;;;;;;8.03;5.53;;;-3.80;99.90;;;;;;8361283;28;20246;-65
2023/12/02 19:39:51;;;;;;;9.47;6.10;;;-3.90;99.90;;;;;;8370705;28;20217;-69
2023/12/02 19:43:52;;;;;;;9.63;6.50;;;-3.90;99.90;;;;;;8372485;28;20193;-68
2023/12/02 19:47:54;;;;;;;10.13;6.20;;;-3.90;99.90;;;;;;8374615;28;20208;-67
2023/12/02 19:51:55;;;;;;;7.73;5.30;;;-3.90;99.90;;;;;;8371013;28;20192;-69
2023/12/02 19:55:57;;;;;;;9.07;5.83;;;-3.90;99.90;;;;;;8372267;28;20211;-68
2023/12/02 19:59:58;;;;;;;8.33;5.53;;;-3.90;99.90;;;;;;8371524;28;20224;-68
2023/12/02 20:03:58;;;;;;;11.77;5.93;;;-3.90;99.90;;;;;;8371111;28;20185;-71
2023/12/02 20:07:59;;;;;;;9.80;6.30;;;-3.90;99.90;;;;;;8370759;28;20204;-70
2023/12/02 20:12:00;;;;;;;10.60;5.80;;;-3.90;99.90;;;;;;8369560;28;20257;-69
2023/12/02 20:16:03;;;;;;;10.13;5.90;;;-3.90;99.90;;;;;;8372785;28;20189;-68
2023/12/02 20:20:04;;;;;;;9.73;6.20;;;-3.90;99.90;;;;;;8373696;28;20216;-68
2023/12/02 20:24:05;;;;;;;9.70;6.23;;;-3.90;99.90;;;;;;8366818;28;20197;-70
2023/12/02 20:28:06;;;;;;;9.30;5.73;;;-3.90;99.90;;;;;;8369969;28;20181;-67
2023/12/02 20:32:08;;;;;;;10.17;5.70;;;-3.90;99.90;;;;;;8368693;28;20209;-69
2023/12/02 20:36:10;;;;;;;8.70;5.40;;;-3.90;99.90;;;;;;8375267;28;20185;-69
2023/12/02 20:40:11;;;;;;;10.40;5.60;;;-3.90;99.90;;;;;;8376164;28;20210;-71
2023/12/02 20:44:16;;;;;;;9.57;5.83;;;-3.90;99.90;;;;;;8375108;28;20192;-69